地図

経路データ

SID SEASON NUMBER BASIN SUBBASIN NAME ISO_TIME NATURE LAT LON WMO_WIND WMO_PRES WMO_AGENCY TRACK_TYPE DIST2LAND LANDFALL IFLAG USA_AGENCY USA_ATCF_ID USA_LAT USA_LON USA_RECORD USA_STATUS USA_WIND USA_PRES USA_SSHS USA_R34_NE USA_R34_SE USA_R34_SW USA_R34_NW USA_R50_NE USA_R50_SE USA_R50_SW USA_R50_NW USA_R64_NE USA_R64_SE USA_R64_SW USA_R64_NW USA_POCI USA_ROCI USA_RMW USA_EYE TOKYO_LAT TOKYO_LON TOKYO_GRADE TOKYO_WIND TOKYO_PRES TOKYO_R50_DIR TOKYO_R50_LONG TOKYO_R50_SHORT TOKYO_R30_DIR TOKYO_R30_LONG TOKYO_R30_SHORT TOKYO_LAND CMA_LAT CMA_LON CMA_CAT CMA_WIND CMA_PRES HKO_LAT HKO_LON HKO_CAT HKO_WIND HKO_PRES NEWDELHI_LAT NEWDELHI_LON NEWDELHI_GRADE NEWDELHI_WIND NEWDELHI_PRES NEWDELHI_CI NEWDELHI_DP NEWDELHI_POCI REUNION_LAT REUNION_LON REUNION_TYPE REUNION_WIND REUNION_PRES REUNION_TNUM REUNION_CI REUNION_RMW REUNION_R34_NE REUNION_R34_SE REUNION_R34_SW REUNION_R34_NW REUNION_R50_NE REUNION_R50_SE REUNION_R50_SW REUNION_R50_NW REUNION_R64_NE REUNION_R64_SE REUNION_R64_SW REUNION_R64_NW BOM_LAT BOM_LON BOM_TYPE BOM_WIND BOM_PRES BOM_TNUM BOM_CI BOM_RMW BOM_R34_NE BOM_R34_SE BOM_R34_SW BOM_R34_NW BOM_R50_NE BOM_R50_SE BOM_R50_SW BOM_R50_NW BOM_R64_NE BOM_R64_SE BOM_R64_SW BOM_R64_NW BOM_ROCI BOM_POCI BOM_EYE BOM_POS_METHOD BOM_PRES_METHOD NADI_LAT NADI_LON NADI_CAT NADI_WIND NADI_PRES WELLINGTON_LAT WELLINGTON_LON WELLINGTON_WIND WELLINGTON_PRES DS824_LAT DS824_LON DS824_STAGE DS824_WIND DS824_PRES TD9636_LAT TD9636_LON TD9636_STAGE TD9636_WIND TD9636_PRES TD9635_LAT TD9635_LON TD9635_WIND TD9635_PRES TD9635_ROCI NEUMANN_LAT NEUMANN_LON NEUMANN_CLASS NEUMANN_WIND NEUMANN_PRES MLC_LAT MLC_LON MLC_CLASS MLC_WIND MLC_PRES USA_GUST BOM_GUST BOM_GUST_PER REUNION_GUST REUNION_GUST_PER USA_SEAHGT USA_SEARAD_NE USA_SEARAD_SE USA_SEARAD_SW USA_SEARAD_NW STORM_SPEED STORM_DIR
1856246N35284 1856 10 NA NA NOT_NAMED 1856-09-02 00:00:00 TS 34.8000 -76.5000 spur-other 0 0 _____________O -1 34.8000 -76.5000 TS 50 11 62
1856246N35284 1856 10 NA NA NOT_NAMED 1856-09-02 03:00:00 TS 35.0567 -75.9146 spur-other 35 35 _____________P -1 35.0691 -75.8943 TS 50 11 63
1856246N35284 1856 10 NA NA NOT_NAMED 1856-09-02 06:00:00 TS 35.3000 -75.3000 spur-other 49 49 _____________O -1 35.3000 -75.3000 TS 50 11 67
1856246N35284 1856 10 NA NA NOT_NAMED 1856-09-02 09:00:00 TS 35.4821 -74.6825 spur-other 79 79 _____________P -1 35.4821 -74.6825 TS 52 13 72
1856246N35284 1856 10 NA NA NOT_NAMED 1856-09-02 12:00:00 TS 35.7000 -73.8000 spur-other 153 153 _____________O -1 35.7000 -73.8000 TS 55 19 73
1856246N35284 1856 10 NA NA NOT_NAMED 1856-09-02 15:00:00 TS 36.0289 -72.4206 spur-other 279 279 _____________P -1 36.0289 -72.4206 TS 60 25 74
1856246N35284 1856 10 NA NA NOT_NAMED 1856-09-02 18:00:00 TS 36.4000 -70.8000 spur-other 426 426 _____________O -1 36.4000 -70.8000 HU 65 27 74
1856246N35284 1856 10 NA NA NOT_NAMED 1856-09-02 21:00:00 TS 36.7561 -69.2493 spur-other 533 533 _____________P -1 36.7561 -69.2493 HU 65 26 74
1856246N35284 1856 10 NA NA NOT_NAMED 1856-09-03 00:00:00 TS 37.1000 -67.7000 spur-other 548 548 _____________O -1 37.1000 -67.7000 HU 65 25 75
1856246N35284 1856 10 NA NA NOT_NAMED 1856-09-03 03:00:00 TS 37.4050 -66.1982 spur-other 578 578 _____________P -1 37.4050 -66.1982 HU 60 25 76
1856246N35284 1856 10 NA NA NOT_NAMED 1856-09-03 06:00:00 TS 37.7000 -64.7000 spur-other 634 634 _____________O -1 37.7000 -64.7000 TS 55 25 76
1856246N35284 1856 10 NA NA NOT_NAMED 1856-09-03 09:00:00 TS 37.9911 -63.1485 spur-other 639 636 _____________P -1 37.9911 -63.1485 TS 52 25 76
1856246N35284 1856 10 NA NA NOT_NAMED 1856-09-03 12:00:00 TS 38.3000 -61.6000 spur-other 656 656 _____________O -1 38.3000 -61.6000 TS 50 25 75
1856246N35284 1856 10 NA NA NOT_NAMED 1856-09-03 15:00:00 TS 38.6400 -60.0988 spur-other 696 693 _____________P -1 38.6400 -60.0988 TS 50 24 73
1856246N35284 1856 10 NA NA NOT_NAMED 1856-09-03 18:00:00 TS 39.0000 -58.6000 spur-other 719 716 _____________O -1 39.0000 -58.6000 TS 50 25 74
1856246N35284 1856 10 NA NA NOT_NAMED 1856-09-03 21:00:00 TS 39.3411 -57.0482 spur-other 737 727 _____________P -1 39.3411 -57.0482 TS 50 25 74
1856246N35284 1856 10 NA NA NOT_NAMED 1856-09-04 00:00:00 TS 39.7000 -55.5000 spur-other 763 723 _____________O -1 39.7000 -55.5000 TS 50 25 73
1856246N35284 1856 10 NA NA NOT_NAMED 1856-09-04 03:00:00 TS 40.0753 -53.9901 spur-other 723 679 _____________P -1 40.0753 -53.9901 TS 50 24 71
1856246N35284 1856 10 NA NA NOT_NAMED 1856-09-04 06:00:00 TS 40.5000 -52.5000 spur-other 680 644 _____________O -1 40.5000 -52.5000 TS 50 25 68
1856246N35284 1856 10 NA NA NOT_NAMED 1856-09-04 09:00:00 TS 41.0144 -50.9641 spur-other 646 631 _____________P -1 41.0144 -50.9641 TS 50 25 66
1856246N35284 1856 10 NA NA NOT_NAMED 1856-09-04 12:00:00 TS 41.5000 -49.5000 spur-other 638 636 _____________O -1 41.5000 -49.5000 TS 50 22 68
1856246N35284 1856 10 NA NA NOT_NAMED 1856-09-04 15:00:00 TS 41.8273 -48.2090 spur-other 664 660 _____________P -1 41.8273 -48.2090 TS 50 20 72
1856246N35284 1856 10 NA NA NOT_NAMED 1856-09-04 18:00:00 ET 42.1000 -47.0000 spur-other 700 700 _____________O -1 42.1000 -47.0000 EX 50 19 73
1856246N35284 1856 10 NA NA NOT_NAMED 1856-09-04 21:00:00 ET 42.3986 -45.7488 spur-other 753 753 _____________P -1 42.3986 -45.7488 EX 50 19 72
1856246N35284 1856 10 NA NA NOT_NAMED 1856-09-05 00:00:00 ET 42.7000 -44.5000 spur-other 808 808 _____________O -1 42.7000 -44.5000 EX 50 19 72
1856246N35284 1856 10 NA NA NOT_NAMED 1856-09-05 03:00:00 ET 42.9911 -43.2483 spur-other 876 876 _____________P -1 42.9911 -43.2483 EX 50 19 72
1856246N35284 1856 10 NA NA NOT_NAMED 1856-09-05 06:00:00 ET 43.3000 -42.0000 spur-other 943 943 _____________O -1 43.3000 -42.0000 EX 50 19 70
1856246N35284 1856 10 NA NA NOT_NAMED 1856-09-05 09:00:00 ET 43.6427 -40.7534 spur-other 1011 1011 _____________P -1 43.6427 -40.7534 EX 50 19 69
1856246N35284 1856 10 NA NA NOT_NAMED 1856-09-05 12:00:00 ET 44.0000 -39.5000 spur-other 1082 _____________O -1 44.0000 -39.5000 EX 50 19 68

IBTrACS Databaseについて

本データベースは、米国NOAAが公開する1842年以降の世界の熱帯低気圧のベストトラックデータアーカイブInternational Best Track Archive for Climate Stewardship (IBTrACS)を、ウェブで閲覧しやすい形式に変換したものです。

最終更新日:2021-10-08